SWR2819 LSGG-LSZH
Flight info
| Callsign | SWR2819 |
|---|---|
| Flight time | 0h 28m |
| Altitude | 17000 |
| Route | SOSAL N871 BERSU |
| Aircraft | A321/M-SDE3FGHIRWY/LB1 |
Departure
| Time | 2026-04-26 05:01 |
|---|---|
| Airport | Geneva International Airport (LSGG) |
Arrival
| Time | 2026-04-26 05:29 |
|---|---|
| Airport | Zürich Airport (LSZH) |
| Time | Latitude | Longitude | Altitude | Speed | Heading |
|---|---|---|---|---|---|
| 2026-04-26 04:33 | 46.23375 | 6.11049 | 1393 ft | 0 kts | 135° |
| 2026-04-26 04:46 | 46.23389 | 6.11029 | 1402 ft | 4 kts | 135° |
| 2026-04-26 04:47 | 46.23408 | 6.11001 | 1396 ft | 4 kts | 135° |
| 2026-04-26 04:47 | 46.23425 | 6.10979 | 1401 ft | 4 kts | 160° |
| 2026-04-26 04:47 | 46.23447 | 6.10981 | 1402 ft | 4 kts | 219° |
| 2026-04-26 04:47 | 46.23460 | 6.10997 | 1398 ft | 1 kts | 226° |
| 2026-04-26 04:48 | 46.23461 | 6.11000 | 1402 ft | 0 kts | 226° |
| 2026-04-26 04:51 | 46.23460 | 6.10997 | 1398 ft | 0 kts | 226° |
| 2026-04-26 04:52 | 46.23456 | 6.10992 | 1398 ft | 4 kts | 226° |
| 2026-04-26 04:52 | 46.23431 | 6.10955 | 1401 ft | 5 kts | 226° |
| 2026-04-26 04:52 | 46.23411 | 6.10925 | 1402 ft | 3 kts | 226° |
| 2026-04-26 04:52 | 46.23389 | 6.10893 | 1395 ft | 8 kts | 226° |
| 2026-04-26 04:53 | 46.23394 | 6.10844 | 1396 ft | 5 kts | 322° |
| 2026-04-26 04:53 | 46.23396 | 6.10842 | 1393 ft | 0 kts | 326° |
| 2026-04-26 04:54 | 46.23415 | 6.10823 | 1400 ft | 7 kts | 320° |
| 2026-04-26 04:54 | 46.23451 | 6.10774 | 1397 ft | 7 kts | 316° |
| 2026-04-26 04:55 | 46.23454 | 6.10717 | 1395 ft | 6 kts | 235° |
| 2026-04-26 04:55 | 46.23430 | 6.10678 | 1400 ft | 5 kts | 226° |
| 2026-04-26 04:55 | 46.23400 | 6.10638 | 1403 ft | 9 kts | 221° |
| 2026-04-26 04:55 | 46.23356 | 6.10579 | 1392 ft | 8 kts | 224° |
| 2026-04-26 04:56 | 46.23319 | 6.10526 | 1403 ft | 8 kts | 224° |
| 2026-04-26 04:56 | 46.23279 | 6.10469 | 1401 ft | 8 kts | 225° |
| 2026-04-26 04:56 | 46.23230 | 6.10398 | 1402 ft | 11 kts | 225° |
| 2026-04-26 04:56 | 46.23165 | 6.10302 | 1400 ft | 15 kts | 227° |
| 2026-04-26 04:57 | 46.23091 | 6.10179 | 1397 ft | 17 kts | 227° |
| 2026-04-26 04:57 | 46.23004 | 6.10050 | 1407 ft | 19 kts | 226° |
| 2026-04-26 04:57 | 46.22909 | 6.09904 | 1398 ft | 21 kts | 224° |
| 2026-04-26 04:57 | 46.22799 | 6.09746 | 1398 ft | 24 kts | 226° |
| 2026-04-26 04:58 | 46.22677 | 6.09571 | 1399 ft | 26 kts | 226° |
| 2026-04-26 04:58 | 46.22576 | 6.09416 | 1400 ft | 16 kts | 229° |
| 2026-04-26 04:58 | 46.22550 | 6.09306 | 1404 ft | 6 kts | 266° |
| 2026-04-26 04:58 | 46.22550 | 6.09286 | 1412 ft | 0 kts | 270° |
| 2026-04-26 04:59 | 46.22550 | 6.09284 | 1413 ft | 2 kts | 270° |
| 2026-04-26 04:59 | 46.22552 | 6.09224 | 1416 ft | 7 kts | 277° |
| 2026-04-26 04:59 | 46.22561 | 6.09192 | 1416 ft | 2 kts | 299° |
| 2026-04-26 04:59 | 46.22586 | 6.09162 | 1417 ft | 6 kts | 337° |
| 2026-04-26 05:00 | 46.22608 | 6.09151 | 1416 ft | 2 kts | 341° |
| 2026-04-26 05:00 | 46.22638 | 6.09177 | 1421 ft | 10 kts | 40° |
| 2026-04-26 05:00 | 46.22750 | 6.09345 | 1417 ft | 51 kts | 46° |
| 2026-04-26 05:00 | 46.23167 | 6.09958 | 1414 ft | 117 kts | 45° |
| 2026-04-26 05:01 | 46.23868 | 6.10977 | 1381 ft | 166 kts | 46° |
| 2026-04-26 05:01 | 46.24711 | 6.12293 | 1679 ft | 181 kts | 47° |
| 2026-04-26 05:01 | 46.25557 | 6.13595 | 2438 ft | 177 kts | 45° |
| 2026-04-26 05:01 | 46.26416 | 6.14855 | 3091 ft | 175 kts | 45° |
| 2026-04-26 05:02 | 46.27271 | 6.16068 | 3688 ft | 169 kts | 44° |
| 2026-04-26 05:02 | 46.28114 | 6.17275 | 4132 ft | 172 kts | 45° |
| 2026-04-26 05:02 | 46.28947 | 6.18492 | 4569 ft | 173 kts | 45° |
| 2026-04-26 05:02 | 46.29831 | 6.19778 | 4775 ft | 189 kts | 45° |
| 2026-04-26 05:03 | 46.30796 | 6.21192 | 4936 ft | 205 kts | 45° |
| 2026-04-26 05:03 | 46.31835 | 6.22734 | 5080 ft | 223 kts | 46° |
| 2026-04-26 05:03 | 46.32973 | 6.24432 | 5249 ft | 247 kts | 45° |
| 2026-04-26 05:03 | 46.34225 | 6.26269 | 5671 ft | 263 kts | 45° |
| 2026-04-26 05:04 | 46.35525 | 6.28172 | 6353 ft | 268 kts | 45° |
| 2026-04-26 05:04 | 46.36714 | 6.30282 | 7032 ft | 274 kts | 60° |
| 2026-04-26 05:04 | 46.37394 | 6.32879 | 7735 ft | 278 kts | 73° |
| 2026-04-26 05:04 | 46.37932 | 6.35584 | 8456 ft | 281 kts | 73° |
| 2026-04-26 05:05 | 46.38480 | 6.38329 | 9177 ft | 285 kts | 73° |
| 2026-04-26 05:05 | 46.39034 | 6.41098 | 9893 ft | 288 kts | 72° |
| 2026-04-26 05:05 | 46.39595 | 6.43903 | 10485 ft | 296 kts | 72° |
| 2026-04-26 05:05 | 46.40192 | 6.46873 | 10612 ft | 318 kts | 72° |
| 2026-04-26 05:06 | 46.40832 | 6.50062 | 10749 ft | 340 kts | 73° |
| 2026-04-26 05:06 | 46.41502 | 6.53402 | 11189 ft | 349 kts | 72° |
| 2026-04-26 05:06 | 46.42180 | 6.56800 | 11803 ft | 353 kts | 73° |
| 2026-04-26 05:06 | 46.42863 | 6.60233 | 12442 ft | 356 kts | 73° |
| 2026-04-26 05:07 | 46.43550 | 6.63698 | 13086 ft | 360 kts | 73° |
| 2026-04-26 05:07 | 46.44386 | 6.67079 | 13708 ft | 362 kts | 63° |
| 2026-04-26 05:07 | 46.45672 | 6.70223 | 14322 ft | 364 kts | 52° |
| 2026-04-26 05:07 | 46.47270 | 6.73100 | 14861 ft | 367 kts | 50° |
| 2026-04-26 05:08 | 46.48893 | 6.75990 | 15426 ft | 370 kts | 50° |
| 2026-04-26 05:08 | 46.50527 | 6.78912 | 15979 ft | 374 kts | 50° |
| 2026-04-26 05:08 | 46.52168 | 6.81860 | 16525 ft | 377 kts | 50° |
| 2026-04-26 05:08 | 46.53825 | 6.84848 | 17020 ft | 382 kts | 50° |
| 2026-04-26 05:09 | 46.55472 | 6.87825 | 17174 ft | 385 kts | 50° |
| 2026-04-26 05:09 | 46.57162 | 6.90875 | 17181 ft | 390 kts | 49° |
| 2026-04-26 05:09 | 46.58891 | 6.93986 | 17182 ft | 391 kts | 49° |
| 2026-04-26 05:09 | 46.60581 | 6.97020 | 17191 ft | 391 kts | 49° |
| 2026-04-26 05:10 | 46.62290 | 7.00091 | 17192 ft | 391 kts | 49° |
| 2026-04-26 05:10 | 46.64005 | 7.03177 | 17193 ft | 391 kts | 49° |
| 2026-04-26 05:10 | 46.65713 | 7.06254 | 17190 ft | 391 kts | 50° |
| 2026-04-26 05:10 | 46.67421 | 7.09336 | 17189 ft | 391 kts | 50° |
| 2026-04-26 05:11 | 46.69126 | 7.12419 | 17190 ft | 391 kts | 50° |
| 2026-04-26 05:11 | 46.70829 | 7.15503 | 17192 ft | 391 kts | 50° |
| 2026-04-26 05:11 | 46.72533 | 7.18593 | 17193 ft | 391 kts | 50° |
| 2026-04-26 05:11 | 46.74238 | 7.21692 | 17194 ft | 391 kts | 50° |
| 2026-04-26 05:12 | 46.75937 | 7.24786 | 17196 ft | 391 kts | 50° |
| 2026-04-26 05:12 | 46.77642 | 7.27888 | 17201 ft | 391 kts | 50° |
| 2026-04-26 05:12 | 46.79344 | 7.30989 | 17199 ft | 391 kts | 50° |
| 2026-04-26 05:12 | 46.81043 | 7.34087 | 17198 ft | 391 kts | 50° |
| 2026-04-26 05:13 | 46.82746 | 7.37196 | 17207 ft | 391 kts | 50° |
| 2026-04-26 05:13 | 46.84448 | 7.40303 | 17200 ft | 391 kts | 50° |
| 2026-04-26 05:13 | 46.86149 | 7.43406 | 17199 ft | 391 kts | 50° |
| 2026-04-26 05:13 | 46.87828 | 7.46478 | 17199 ft | 391 kts | 50° |
| 2026-04-26 05:14 | 46.89521 | 7.49589 | 17202 ft | 391 kts | 50° |
| 2026-04-26 05:14 | 46.91215 | 7.52708 | 17222 ft | 391 kts | 50° |
| 2026-04-26 05:14 | 46.92907 | 7.55824 | 17218 ft | 391 kts | 50° |
| 2026-04-26 05:14 | 46.94600 | 7.58943 | 17227 ft | 391 kts | 50° |
| 2026-04-26 05:15 | 46.96289 | 7.62060 | 17226 ft | 391 kts | 50° |
| 2026-04-26 05:15 | 46.97974 | 7.65177 | 17227 ft | 390 kts | 50° |
| 2026-04-26 05:15 | 46.99661 | 7.68302 | 17230 ft | 390 kts | 50° |
| 2026-04-26 05:15 | 47.01343 | 7.71421 | 17228 ft | 390 kts | 50° |
| 2026-04-26 05:16 | 47.03024 | 7.74537 | 17225 ft | 390 kts | 50° |
| 2026-04-26 05:16 | 47.04705 | 7.77653 | 17225 ft | 390 kts | 50° |
| 2026-04-26 05:16 | 47.06381 | 7.80767 | 17193 ft | 386 kts | 50° |
| 2026-04-26 05:16 | 47.08030 | 7.83836 | 16727 ft | 381 kts | 50° |
| 2026-04-26 05:17 | 47.09663 | 7.86878 | 16244 ft | 377 kts | 50° |
| 2026-04-26 05:17 | 47.11278 | 7.89886 | 15769 ft | 373 kts | 50° |
| 2026-04-26 05:17 | 47.12870 | 7.92880 | 15304 ft | 370 kts | 53° |
| 2026-04-26 05:17 | 47.14200 | 7.96105 | 14840 ft | 369 kts | 63° |
| 2026-04-26 05:18 | 47.15291 | 7.99503 | 14389 ft | 366 kts | 64° |
| 2026-04-26 05:18 | 47.16365 | 8.02871 | 13932 ft | 363 kts | 64° |
| 2026-04-26 05:18 | 47.17435 | 8.06219 | 13429 ft | 360 kts | 64° |
| 2026-04-26 05:18 | 47.18136 | 8.08416 | 13090 ft | 354 kts | 64° |
| 2026-04-26 05:19 | 47.19165 | 8.11646 | 12562 ft | 344 kts | 64° |
| 2026-04-26 05:19 | 47.20166 | 8.14801 | 11982 ft | 337 kts | 64° |
| 2026-04-26 05:19 | 47.21459 | 8.18891 | 11199 ft | 329 kts | 64° |
| 2026-04-26 05:19 | 47.22375 | 8.21953 | 10591 ft | 326 kts | 71° |
| 2026-04-26 05:20 | 47.22607 | 8.25201 | 10279 ft | 315 kts | 96° |
| 2026-04-26 05:20 | 47.22161 | 8.28305 | 10083 ft | 307 kts | 103° |
| 2026-04-26 05:20 | 47.21799 | 8.30348 | 9881 ft | 304 kts | 103° |
| 2026-04-26 05:20 | 47.21255 | 8.33335 | 9499 ft | 301 kts | 104° |
| 2026-04-26 05:21 | 47.20721 | 8.36272 | 9107 ft | 298 kts | 104° |
| 2026-04-26 05:21 | 47.20194 | 8.39177 | 8719 ft | 290 kts | 104° |
| 2026-04-26 05:21 | 47.19682 | 8.42019 | 8339 ft | 286 kts | 104° |
| 2026-04-26 05:21 | 47.19178 | 8.44831 | 7968 ft | 283 kts | 104° |
| 2026-04-26 05:22 | 47.18681 | 8.47634 | 7597 ft | 282 kts | 104° |
| 2026-04-26 05:22 | 47.18190 | 8.50416 | 7216 ft | 280 kts | 104° |
| 2026-04-26 05:22 | 47.17856 | 8.53215 | 6850 ft | 277 kts | 87° |
| 2026-04-26 05:22 | 47.18250 | 8.55952 | 6424 ft | 272 kts | 71° |
| 2026-04-26 05:23 | 47.18891 | 8.58540 | 5992 ft | 266 kts | 69° |
| 2026-04-26 05:23 | 47.19544 | 8.61049 | 5563 ft | 260 kts | 69° |
| 2026-04-26 05:23 | 47.20188 | 8.63496 | 5137 ft | 253 kts | 68° |
| 2026-04-26 05:23 | 47.21108 | 8.65574 | 5001 ft | 237 kts | 40° |
| 2026-04-26 05:24 | 47.22533 | 8.66615 | 5030 ft | 230 kts | 17° |
| 2026-04-26 05:24 | 47.24071 | 8.67179 | 5004 ft | 222 kts | 14° |
| 2026-04-26 05:24 | 47.25537 | 8.67652 | 5018 ft | 213 kts | 12° |
| 2026-04-26 05:24 | 47.27008 | 8.67597 | 5013 ft | 215 kts | 347° |
| 2026-04-26 05:25 | 47.28342 | 8.66788 | 5003 ft | 204 kts | 336° |
| 2026-04-26 05:25 | 47.29610 | 8.65920 | 4963 ft | 199 kts | 337° |
| 2026-04-26 05:25 | 47.30851 | 8.65067 | 4747 ft | 195 kts | 337° |
| 2026-04-26 05:25 | 47.32049 | 8.64246 | 4482 ft | 184 kts | 338° |
| 2026-04-26 05:26 | 47.33173 | 8.63476 | 4246 ft | 173 kts | 338° |
| 2026-04-26 05:26 | 47.34224 | 8.62757 | 3989 ft | 161 kts | 339° |
| 2026-04-26 05:26 | 47.35226 | 8.62071 | 3755 ft | 157 kts | 339° |
| 2026-04-26 05:26 | 47.36211 | 8.61397 | 3532 ft | 156 kts | 340° |
| 2026-04-26 05:27 | 47.37191 | 8.60726 | 3303 ft | 154 kts | 340° |
| 2026-04-26 05:27 | 47.38164 | 8.60059 | 3081 ft | 153 kts | 339° |
| 2026-04-26 05:27 | 47.39125 | 8.59400 | 2847 ft | 152 kts | 339° |
| 2026-04-26 05:27 | 47.40077 | 8.58747 | 2620 ft | 150 kts | 338° |
| 2026-04-26 05:28 | 47.41022 | 8.58098 | 2382 ft | 149 kts | 337° |
| 2026-04-26 05:28 | 47.41959 | 8.57457 | 2171 ft | 148 kts | 336° |
| 2026-04-26 05:28 | 47.42887 | 8.56819 | 1944 ft | 146 kts | 335° |
| 2026-04-26 05:28 | 47.43803 | 8.56190 | 1722 ft | 144 kts | 334° |
| 2026-04-26 05:29 | 47.44710 | 8.55568 | 1507 ft | 143 kts | 335° |
| 2026-04-26 05:29 | 47.45590 | 8.54956 | 1402 ft | 136 kts | 334° |
| 2026-04-26 05:29 | 47.46260 | 8.54493 | 1387 ft | 79 kts | 335° |
| 2026-04-26 05:29 | 47.46620 | 8.54244 | 1379 ft | 38 kts | 335° |
| 2026-04-26 05:30 | 47.46843 | 8.54095 | 1380 ft | 33 kts | 337° |
| 2026-04-26 05:30 | 47.46990 | 8.54029 | 1381 ft | 12 kts | 29° |
| 2026-04-26 05:30 | 47.47023 | 8.54130 | 1383 ft | 11 kts | 88° |
| 2026-04-26 05:30 | 47.47004 | 8.54226 | 1381 ft | 9 kts | 131° |
| 2026-04-26 05:31 | 47.46959 | 8.54286 | 1382 ft | 8 kts | 139° |
| 2026-04-26 05:31 | 47.46957 | 8.54287 | 1382 ft | 8 kts | 139° |
| 2026-04-26 05:31 | 47.46921 | 8.54332 | 1384 ft | 7 kts | 145° |
| 2026-04-26 05:31 | 47.46880 | 8.54365 | 1381 ft | 7 kts | 152° |
| 2026-04-26 05:32 | 47.46837 | 8.54395 | 1379 ft | 8 kts | 159° |
| 2026-04-26 05:32 | 47.46742 | 8.54452 | 1382 ft | 21 kts | 156° |
| 2026-04-26 05:32 | 47.46608 | 8.54540 | 1385 ft | 20 kts | 158° |
| 2026-04-26 05:32 | 47.46484 | 8.54617 | 1386 ft | 19 kts | 155° |
| 2026-04-26 05:33 | 47.46362 | 8.54706 | 1383 ft | 20 kts | 154° |
| 2026-04-26 05:33 | 47.46245 | 8.54785 | 1385 ft | 17 kts | 155° |
| 2026-04-26 05:33 | 47.46144 | 8.54855 | 1386 ft | 15 kts | 155° |
| 2026-04-26 05:33 | 47.46052 | 8.54918 | 1386 ft | 14 kts | 155° |
| 2026-04-26 05:34 | 47.45976 | 8.54971 | 1403 ft | 10 kts | 155° |
| 2026-04-26 05:34 | 47.45910 | 8.55017 | 1398 ft | 13 kts | 154° |
| 2026-04-26 05:34 | 47.45799 | 8.55096 | 1399 ft | 23 kts | 154° |
| 2026-04-26 05:34 | 47.45653 | 8.55203 | 1401 ft | 21 kts | 157° |
| 2026-04-26 05:35 | 47.45545 | 8.55284 | 1403 ft | 14 kts | 123° |
| 2026-04-26 05:35 | 47.45533 | 8.55401 | 1406 ft | 9 kts | 95° |
| 2026-04-26 05:35 | 47.45529 | 8.55466 | 1408 ft | 4 kts | 95° |
| 2026-04-26 05:35 | 47.45525 | 8.55519 | 1405 ft | 6 kts | 96° |
| 2026-04-26 05:36 | 47.45518 | 8.55607 | 1407 ft | 14 kts | 97° |
| 2026-04-26 05:36 | 47.45508 | 8.55744 | 1409 ft | 10 kts | 96° |
| 2026-04-26 05:36 | 47.45496 | 8.55813 | 1412 ft | 3 kts | 150° |
| 2026-04-26 05:36 | 47.45477 | 8.55810 | 1410 ft | 3 kts | 185° |
| 2026-04-26 05:37 | 47.45460 | 8.55808 | 1407 ft | 2 kts | 184° |
| 2026-04-26 05:37 | 47.45452 | 8.55807 | 1407 ft | 0 kts | 185° |
| 2026-04-26 05:37 | 47.45436 | 8.55805 | 1410 ft | 3 kts | 186° |
| 2026-04-26 05:37 | 47.45426 | 8.55804 | 1407 ft | 0 kts | 186° |